sensor_id;sensor_type;location;lat;lon;timestamp;P1;durP1;ratioP1;P2;durP2;ratioP2
5058;SDS011;2548;52.050;11.036;2023-08-17T00:02:12;8.43;;;7.63;;
5058;SDS011;2548;52.050;11.036;2023-08-17T00:04:40;7.77;;;7.10;;
5058;SDS011;2548;52.050;11.036;2023-08-17T00:07:07;7.83;;;7.33;;
5058;SDS011;2548;52.050;11.036;2023-08-17T00:09:35;8.27;;;7.47;;
5058;SDS011;2548;52.050;11.036;2023-08-17T00:12:02;17.93;;;7.53;;
5058;SDS011;2548;52.050;11.036;2023-08-17T00:14:30;7.83;;;7.23;;
5058;SDS011;2548;52.050;11.036;2023-08-17T00:16:58;7.40;;;6.70;;
5058;SDS011;2548;52.050;11.036;2023-08-17T00:19:27;7.20;;;6.43;;
5058;SDS011;2548;52.050;11.036;2023-08-17T00:21:54;7.07;;;6.47;;
5058;SDS011;2548;52.050;11.036;2023-08-17T00:24:22;7.07;;;6.37;;
5058;SDS011;2548;52.050;11.036;2023-08-17T00:26:49;11.27;;;7.83;;
5058;SDS011;2548;52.050;11.036;2023-08-17T00:29:16;7.57;;;7.00;;
5058;SDS011;2548;52.050;11.036;2023-08-17T00:31:44;8.03;;;7.20;;
5058;SDS011;2548;52.050;11.036;2023-08-17T00:34:12;8.03;;;6.43;;
5058;SDS011;2548;52.050;11.036;2023-08-17T00:36:41;15.57;;;8.03;;
5058;SDS011;2548;52.050;11.036;2023-08-17T00:39:08;8.70;;;6.73;;
5058;SDS011;2548;52.050;11.036;2023-08-17T00:41:36;7.13;;;6.50;;
5058;SDS011;2548;52.050;11.036;2023-08-17T00:44:03;7.53;;;6.83;;
5058;SDS011;2548;52.050;11.036;2023-08-17T00:46:31;7.90;;;7.10;;
5058;SDS011;2548;52.050;11.036;2023-08-17T00:48:59;9.00;;;6.63;;
5058;SDS011;2548;52.050;11.036;2023-08-17T00:51:28;9.73;;;6.50;;
5058;SDS011;2548;52.050;11.036;2023-08-17T00:53:58;8.83;;;6.50;;
5058;SDS011;2548;52.050;11.036;2023-08-17T00:56:27;19.20;;;8.20;;
5058;SDS011;2548;52.050;11.036;2023-08-17T00:58:55;10.33;;;7.50;;
5058;SDS011;2548;52.050;11.036;2023-08-17T01:01:23;13.33;;;7.93;;
5058;SDS011;2548;52.050;11.036;2023-08-17T01:03:51;11.47;;;7.43;;
5058;SDS011;2548;52.050;11.036;2023-08-17T01:06:18;10.83;;;6.87;;
5058;SDS011;2548;52.050;11.036;2023-08-17T01:08:46;13.83;;;7.90;;
5058;SDS011;2548;52.050;11.036;2023-08-17T01:11:18;18.73;;;8.33;;
5058;SDS011;2548;52.050;11.036;2023-08-17T01:13:55;12.07;;;7.30;;
5058;SDS011;2548;52.050;11.036;2023-08-17T01:16:29;13.13;;;7.43;;
5058;SDS011;2548;52.050;11.036;2023-08-17T01:19:00;8.83;;;6.67;;
5058;SDS011;2548;52.050;11.036;2023-08-17T01:21:34;7.40;;;6.67;;
5058;SDS011;2548;52.050;11.036;2023-08-17T01:24:09;13.17;;;7.60;;
5058;SDS011;2548;52.050;11.036;2023-08-17T01:26:38;10.20;;;7.43;;
5058;SDS011;2548;52.050;11.036;2023-08-17T01:29:05;6.80;;;6.27;;
5058;SDS011;2548;52.050;11.036;2023-08-17T01:31:36;8.80;;;6.90;;
5058;SDS011;2548;52.050;11.036;2023-08-17T01:34:10;9.50;;;7.43;;
5058;SDS011;2548;52.050;11.036;2023-08-17T01:36:45;7.07;;;6.47;;
5058;SDS011;2548;52.050;11.036;2023-08-17T01:39:18;7.77;;;7.00;;
5058;SDS011;2548;52.050;11.036;2023-08-17T01:41:50;6.43;;;5.83;;
5058;SDS011;2548;52.050;11.036;2023-08-17T01:44:19;7.73;;;7.07;;
5058;SDS011;2548;52.050;11.036;2023-08-17T01:46:48;9.50;;;6.90;;
5058;SDS011;2548;52.050;11.036;2023-08-17T01:49:15;9.20;;;7.07;;
5058;SDS011;2548;52.050;11.036;2023-08-17T01:51:43;7.73;;;6.93;;
5058;SDS011;2548;52.050;11.036;2023-08-17T01:54:10;12.70;;;8.97;;
5058;SDS011;2548;52.050;11.036;2023-08-17T01:56:39;9.73;;;8.80;;
5058;SDS011;2548;52.050;11.036;2023-08-17T01:59:06;11.67;;;9.10;;
5058;SDS011;2548;52.050;11.036;2023-08-17T02:01:34;12.02;;;9.90;;
5058;SDS011;2548;52.050;11.036;2023-08-17T02:04:03;15.37;;;8.80;;
5058;SDS011;2548;52.050;11.036;2023-08-17T02:06:31;9.67;;;7.73;;
5058;SDS011;2548;52.050;11.036;2023-08-17T02:08:58;8.93;;;7.43;;
5058;SDS011;2548;52.050;11.036;2023-08-17T02:11:26;9.23;;;6.00;;
5058;SDS011;2548;52.050;11.036;2023-08-17T02:13:55;8.07;;;6.73;;
5058;SDS011;2548;52.050;11.036;2023-08-17T02:16:22;5.97;;;5.50;;
5058;SDS011;2548;52.050;11.036;2023-08-17T02:18:50;6.50;;;6.00;;
5058;SDS011;2548;52.050;11.036;2023-08-17T02:21:17;5.70;;;5.30;;
5058;SDS011;2548;52.050;11.036;2023-08-17T02:23:44;5.53;;;5.20;;
5058;SDS011;2548;52.050;11.036;2023-08-17T02:26:13;6.50;;;6.00;;
5058;SDS011;2548;52.050;11.036;2023-08-17T02:28:40;6.97;;;5.57;;
5058;SDS011;2548;52.050;11.036;2023-08-17T02:31:09;10.87;;;6.20;;
5058;SDS011;2548;52.050;11.036;2023-08-17T02:33:36;8.00;;;5.97;;
5058;SDS011;2548;52.050;11.036;2023-08-17T02:36:05;11.70;;;6.33;;
5058;SDS011;2548;52.050;11.036;2023-08-17T02:38:33;7.27;;;6.57;;
5058;SDS011;2548;52.050;11.036;2023-08-17T02:41:00;8.00;;;6.70;;
5058;SDS011;2548;52.050;11.036;2023-08-17T02:43:28;6.10;;;5.60;;
5058;SDS011;2548;52.050;11.036;2023-08-17T02:45:55;6.57;;;6.00;;
5058;SDS011;2548;52.050;11.036;2023-08-17T02:48:27;7.00;;;6.50;;
5058;SDS011;2548;52.050;11.036;2023-08-17T02:50:55;8.20;;;7.50;;
5058;SDS011;2548;52.050;11.036;2023-08-17T02:53:23;11.60;;;8.60;;
5058;SDS011;2548;52.050;11.036;2023-08-17T02:55:50;9.40;;;8.60;;
5058;SDS011;2548;52.050;11.036;2023-08-17T02:58:18;13.17;;;9.20;;
5058;SDS011;2548;52.050;11.036;2023-08-17T03:00:45;8.90;;;8.00;;
5058;SDS011;2548;52.050;11.036;2023-08-17T03:03:13;10.03;;;9.23;;
5058;SDS011;2548;52.050;11.036;2023-08-17T03:05:42;11.63;;;7.67;;
5058;SDS011;2548;52.050;11.036;2023-08-17T03:08:09;12.37;;;8.73;;
5058;SDS011;2548;52.050;11.036;2023-08-17T03:10:37;8.27;;;7.10;;
5058;SDS011;2548;52.050;11.036;2023-08-17T03:13:04;14.23;;;8.27;;
5058;SDS011;2548;52.050;11.036;2023-08-17T03:15:32;7.57;;;6.93;;
5058;SDS011;2548;52.050;11.036;2023-08-17T03:17:59;7.50;;;6.80;;
5058;SDS011;2548;52.050;11.036;2023-08-17T03:20:27;7.80;;;7.20;;
5058;SDS011;2548;52.050;11.036;2023-08-17T03:22:56;7.20;;;6.50;;
5058;SDS011;2548;52.050;11.036;2023-08-17T03:25:23;6.70;;;6.20;;
5058;SDS011;2548;52.050;11.036;2023-08-17T03:27:50;5.90;;;5.50;;
5058;SDS011;2548;52.050;11.036;2023-08-17T03:30:19;8.17;;;6.67;;
5058;SDS011;2548;52.050;11.036;2023-08-17T03:32:47;9.03;;;6.23;;
5058;SDS011;2548;52.050;11.036;2023-08-17T03:35:14;6.53;;;5.93;;
5058;SDS011;2548;52.050;11.036;2023-08-17T03:37:42;8.57;;;6.17;;
5058;SDS011;2548;52.050;11.036;2023-08-17T03:40:12;7.57;;;6.90;;
5058;SDS011;2548;52.050;11.036;2023-08-17T03:42:40;6.77;;;6.27;;
5058;SDS011;2548;52.050;11.036;2023-08-17T03:45:08;8.37;;;7.23;;
5058;SDS011;2548;52.050;11.036;2023-08-17T03:47:36;8.63;;;7.20;;
5058;SDS011;2548;52.050;11.036;2023-08-17T03:50:04;10.87;;;7.23;;
5058;SDS011;2548;52.050;11.036;2023-08-17T03:52:32;9.13;;;8.27;;
5058;SDS011;2548;52.050;11.036;2023-08-17T03:54:59;8.53;;;7.80;;
5058;SDS011;2548;52.050;11.036;2023-08-17T03:57:28;8.03;;;7.43;;
5058;SDS011;2548;52.050;11.036;2023-08-17T03:59:55;9.90;;;6.40;;
5058;SDS011;2548;52.050;11.036;2023-08-17T04:02:23;8.40;;;7.60;;
5058;SDS011;2548;52.050;11.036;2023-08-17T04:04:50;8.43;;;7.63;;
5058;SDS011;2548;52.050;11.036;2023-08-17T04:07:20;9.32;;;8.45;;
5058;SDS011;2548;52.050;11.036;2023-08-17T04:09:48;8.47;;;7.50;;
5058;SDS011;2548;52.050;11.036;2023-08-17T04:12:16;8.35;;;7.75;;
5058;SDS011;2548;52.050;11.036;2023-08-17T04:14:45;9.85;;;8.07;;
5058;SDS011;2548;52.050;11.036;2023-08-17T04:17:13;8.40;;;7.80;;
5058;SDS011;2548;52.050;11.036;2023-08-17T04:19:41;8.37;;;7.60;;
5058;SDS011;2548;52.050;11.036;2023-08-17T04:22:09;8.60;;;7.90;;
5058;SDS011;2548;52.050;11.036;2023-08-17T04:24:36;9.57;;;8.03;;
5058;SDS011;2548;52.050;11.036;2023-08-17T04:27:04;7.80;;;7.30;;
5058;SDS011;2548;52.050;11.036;2023-08-17T04:29:31;8.97;;;8.27;;
5058;SDS011;2548;52.050;11.036;2023-08-17T04:32:03;7.20;;;6.60;;
5058;SDS011;2548;52.050;11.036;2023-08-17T04:34:31;8.00;;;7.40;;
5058;SDS011;2548;52.050;11.036;2023-08-17T04:36:59;8.80;;;7.00;;
5058;SDS011;2548;52.050;11.036;2023-08-17T04:39:26;9.03;;;8.20;;
5058;SDS011;2548;52.050;11.036;2023-08-17T04:41:55;8.60;;;7.80;;
5058;SDS011;2548;52.050;11.036;2023-08-17T04:44:28;8.40;;;7.80;;
5058;SDS011;2548;52.050;11.036;2023-08-17T04:46:56;8.87;;;7.93;;
5058;SDS011;2548;52.050;11.036;2023-08-17T04:49:25;9.10;;;8.30;;
5058;SDS011;2548;52.050;11.036;2023-08-17T04:51:53;10.53;;;8.20;;
5058;SDS011;2548;52.050;11.036;2023-08-17T04:54:20;9.23;;;8.33;;
5058;SDS011;2548;52.050;11.036;2023-08-17T04:56:48;8.30;;;7.70;;
5058;SDS011;2548;52.050;11.036;2023-08-17T04:59:15;8.00;;;7.20;;
5058;SDS011;2548;52.050;11.036;2023-08-17T05:01:42;8.87;;;8.10;;
5058;SDS011;2548;52.050;11.036;2023-08-17T05:04:10;9.00;;;8.20;;
5058;SDS011;2548;52.050;11.036;2023-08-17T05:06:39;7.33;;;6.73;;
5058;SDS011;2548;52.050;11.036;2023-08-17T05:09:07;9.47;;;8.77;;
5058;SDS011;2548;52.050;11.036;2023-08-17T05:11:35;8.60;;;7.80;;
5058;SDS011;2548;52.050;11.036;2023-08-17T05:14:02;11.20;;;8.77;;
5058;SDS011;2548;52.050;11.036;2023-08-17T05:16:30;8.73;;;7.90;;
5058;SDS011;2548;52.050;11.036;2023-08-17T05:18:58;10.10;;;8.80;;
5058;SDS011;2548;52.050;11.036;2023-08-17T05:21:26;8.73;;;7.80;;
5058;SDS011;2548;52.050;11.036;2023-08-17T05:23:56;8.57;;;7.63;;
5058;SDS011;2548;52.050;11.036;2023-08-17T05:26:23;8.80;;;8.00;;
5058;SDS011;2548;52.050;11.036;2023-08-17T05:28:51;12.70;;;8.13;;
5058;SDS011;2548;52.050;11.036;2023-08-17T05:31:18;11.83;;;9.23;;
5058;SDS011;2548;52.050;11.036;2023-08-17T05:33:47;8.70;;;7.80;;
5058;SDS011;2548;52.050;11.036;2023-08-17T05:36:15;8.93;;;7.43;;
5058;SDS011;2548;52.050;11.036;2023-08-17T05:38:43;9.47;;;8.20;;
5058;SDS011;2548;52.050;11.036;2023-08-17T05:41:12;9.20;;;8.07;;
5058;SDS011;2548;52.050;11.036;2023-08-17T05:43:39;8.30;;;7.60;;
5058;SDS011;2548;52.050;11.036;2023-08-17T05:46:06;7.83;;;6.70;;
5058;SDS011;2548;52.050;11.036;2023-08-17T05:48:35;7.60;;;7.07;;
5058;SDS011;2548;52.050;11.036;2023-08-17T05:51:02;9.97;;;7.63;;
5058;SDS011;2548;52.050;11.036;2023-08-17T05:53:30;12.50;;;8.33;;
5058;SDS011;2548;52.050;11.036;2023-08-17T05:55:57;8.70;;;7.23;;
5058;SDS011;2548;52.050;11.036;2023-08-17T05:58:26;9.00;;;8.10;;
5058;SDS011;2548;52.050;11.036;2023-08-17T06:00:53;8.77;;;7.47;;
5058;SDS011;2548;52.050;11.036;2023-08-17T06:03:21;9.37;;;8.10;;
5058;SDS011;2548;52.050;11.036;2023-08-17T06:05:51;8.80;;;7.80;;
5058;SDS011;2548;52.050;11.036;2023-08-17T06:08:19;8.90;;;8.00;;
5058;SDS011;2548;52.050;11.036;2023-08-17T06:10:46;11.70;;;8.47;;
5058;SDS011;2548;52.050;11.036;2023-08-17T06:13:14;9.50;;;7.63;;
5058;SDS011;2548;52.050;11.036;2023-08-17T06:15:43;9.37;;;8.50;;
5058;SDS011;2548;52.050;11.036;2023-08-17T06:18:10;9.43;;;8.63;;
5058;SDS011;2548;52.050;11.036;2023-08-17T06:20:37;14.60;;;10.50;;
5058;SDS011;2548;52.050;11.036;2023-08-17T06:23:05;11.90;;;9.47;;
5058;SDS011;2548;52.050;11.036;2023-08-17T06:25:32;9.57;;;8.67;;
5058;SDS011;2548;52.050;11.036;2023-08-17T06:28:00;12.50;;;8.80;;
5058;SDS011;2548;52.050;11.036;2023-08-17T06:30:27;9.80;;;8.87;;
5058;SDS011;2548;52.050;11.036;2023-08-17T06:32:56;10.33;;;9.40;;
5058;SDS011;2548;52.050;11.036;2023-08-17T06:35:24;12.33;;;10.30;;
5058;SDS011;2548;52.050;11.036;2023-08-17T06:37:52;10.73;;;9.00;;
5058;SDS011;2548;52.050;11.036;2023-08-17T06:40:22;10.90;;;9.90;;
5058;SDS011;2548;52.050;11.036;2023-08-17T06:42:49;14.05;;;10.38;;
5058;SDS011;2548;52.050;11.036;2023-08-17T06:45:17;10.40;;;9.33;;
5058;SDS011;2548;52.050;11.036;2023-08-17T06:47:45;10.93;;;9.93;;
5058;SDS011;2548;52.050;11.036;2023-08-17T06:50:15;11.20;;;10.10;;
5058;SDS011;2548;52.050;11.036;2023-08-17T06:52:43;11.40;;;10.20;;
5058;SDS011;2548;52.050;11.036;2023-08-17T06:55:10;10.45;;;9.48;;
5058;SDS011;2548;52.050;11.036;2023-08-17T06:57:38;10.23;;;9.30;;
5058;SDS011;2548;52.050;11.036;2023-08-17T07:00:05;10.10;;;9.10;;
5058;SDS011;2548;52.050;11.036;2023-08-17T07:02:34;9.40;;;8.70;;
5058;SDS011;2548;52.050;11.036;2023-08-17T07:05:01;11.67;;;9.90;;
5058;SDS011;2548;52.050;11.036;2023-08-17T07:07:30;8.63;;;7.93;;
5058;SDS011;2548;52.050;11.036;2023-08-17T07:09:58;15.70;;;10.20;;
5058;SDS011;2548;52.050;11.036;2023-08-17T07:12:25;11.33;;;10.27;;
5058;SDS011;2548;52.050;11.036;2023-08-17T07:14:54;12.03;;;10.23;;
5058;SDS011;2548;52.050;11.036;2023-08-17T07:17:21;10.67;;;9.67;;
5058;SDS011;2548;52.050;11.036;2023-08-17T07:19:48;13.03;;;11.43;;
5058;SDS011;2548;52.050;11.036;2023-08-17T07:22:16;11.27;;;9.67;;
5058;SDS011;2548;52.050;11.036;2023-08-17T07:24:45;13.50;;;8.60;;
5058;SDS011;2548;52.050;11.036;2023-08-17T07:27:12;10.00;;;9.00;;
5058;SDS011;2548;52.050;11.036;2023-08-17T07:29:39;10.67;;;9.57;;
5058;SDS011;2548;52.050;11.036;2023-08-17T07:32:07;9.93;;;9.03;;
5058;SDS011;2548;52.050;11.036;2023-08-17T07:34:35;13.63;;;9.43;;
5058;SDS011;2548;52.050;11.036;2023-08-17T07:37:03;9.30;;;8.43;;
5058;SDS011;2548;52.050;11.036;2023-08-17T07:39:31;9.07;;;8.17;;
5058;SDS011;2548;52.050;11.036;2023-08-17T07:42:00;9.77;;;8.70;;
5058;SDS011;2548;52.050;11.036;2023-08-17T07:44:27;10.53;;;7.70;;
5058;SDS011;2548;52.050;11.036;2023-08-17T07:46:57;10.00;;;7.30;;
5058;SDS011;2548;52.050;11.036;2023-08-17T07:49:24;8.50;;;7.63;;
5058;SDS011;2548;52.050;11.036;2023-08-17T07:51:52;8.20;;;7.43;;
5058;SDS011;2548;52.050;11.036;2023-08-17T07:54:19;8.50;;;7.00;;
5058;SDS011;2548;52.050;11.036;2023-08-17T07:56:47;8.20;;;6.97;;
5058;SDS011;2548;52.050;11.036;2023-08-17T07:59:15;9.10;;;6.67;;
5058;SDS011;2548;52.050;11.036;2023-08-17T08:01:43;8.83;;;6.83;;
5058;SDS011;2548;52.050;11.036;2023-08-17T08:04:10;7.03;;;6.23;;
5058;SDS011;2548;52.050;11.036;2023-08-17T08:06:38;6.53;;;6.03;;
5058;SDS011;2548;52.050;11.036;2023-08-17T08:09:05;6.67;;;6.00;;
5058;SDS011;2548;52.050;11.036;2023-08-17T08:11:33;5.63;;;5.20;;
5058;SDS011;2548;52.050;11.036;2023-08-17T08:14:00;6.30;;;5.70;;
5058;SDS011;2548;52.050;11.036;2023-08-17T08:16:29;4.87;;;4.57;;
5058;SDS011;2548;52.050;11.036;2023-08-17T08:18:57;5.77;;;5.40;;
5058;SDS011;2548;52.050;11.036;2023-08-17T08:21:24;4.93;;;4.63;;
5058;SDS011;2548;52.050;11.036;2023-08-17T08:23:52;5.90;;;5.30;;
5058;SDS011;2548;52.050;11.036;2023-08-17T08:26:20;8.83;;;4.77;;
5058;SDS011;2548;52.050;11.036;2023-08-17T08:28:47;5.63;;;5.13;;
5058;SDS011;2548;52.050;11.036;2023-08-17T08:31:15;5.70;;;5.30;;
5058;SDS011;2548;52.050;11.036;2023-08-17T08:33:44;5.10;;;4.80;;
5058;SDS011;2548;52.050;11.036;2023-08-17T08:36:11;8.10;;;5.23;;
5058;SDS011;2548;52.050;11.036;2023-08-17T08:38:38;5.60;;;5.13;;
5058;SDS011;2548;52.050;11.036;2023-08-17T08:41:05;4.63;;;4.43;;
5058;SDS011;2548;52.050;11.036;2023-08-17T08:43:36;7.80;;;4.53;;
5058;SDS011;2548;52.050;11.036;2023-08-17T08:46:03;5.00;;;4.10;;
5058;SDS011;2548;52.050;11.036;2023-08-17T08:48:31;5.20;;;4.80;;
5058;SDS011;2548;52.050;11.036;2023-08-17T08:51:01;5.30;;;4.90;;
5058;SDS011;2548;52.050;11.036;2023-08-17T08:53:36;5.20;;;4.80;;
5058;SDS011;2548;52.050;11.036;2023-08-17T08:56:06;5.30;;;5.00;;
5058;SDS011;2548;52.050;11.036;2023-08-17T08:58:38;4.97;;;4.67;;
5058;SDS011;2548;52.050;11.036;2023-08-17T09:01:09;5.47;;;5.00;;
5058;SDS011;2548;52.050;11.036;2023-08-17T09:03:37;6.00;;;5.57;;
5058;SDS011;2548;52.050;11.036;2023-08-17T09:06:06;5.33;;;4.83;;
5058;SDS011;2548;52.050;11.036;2023-08-17T09:08:36;5.10;;;4.70;;
5058;SDS011;2548;52.050;11.036;2023-08-17T09:11:03;5.70;;;5.20;;
5058;SDS011;2548;52.050;11.036;2023-08-17T09:13:31;7.23;;;4.83;;
5058;SDS011;2548;52.050;11.036;2023-08-17T09:15:59;4.67;;;4.33;;
5058;SDS011;2548;52.050;11.036;2023-08-17T09:18:26;4.23;;;4.03;;
5058;SDS011;2548;52.050;11.036;2023-08-17T09:20:54;5.33;;;4.03;;
5058;SDS011;2548;52.050;11.036;2023-08-17T09:23:23;4.30;;;4.00;;
5058;SDS011;2548;52.050;11.036;2023-08-17T09:25:51;3.87;;;3.57;;
5058;SDS011;2548;52.050;11.036;2023-08-17T09:28:23;3.90;;;3.63;;
5058;SDS011;2548;52.050;11.036;2023-08-17T09:30:51;4.00;;;3.80;;
5058;SDS011;2548;52.050;11.036;2023-08-17T09:33:20;5.13;;;3.60;;
5058;SDS011;2548;52.050;11.036;2023-08-17T09:35:48;7.07;;;3.70;;
5058;SDS011;2548;52.050;11.036;2023-08-17T09:38:16;3.87;;;3.70;;
5058;SDS011;2548;52.050;11.036;2023-08-17T09:40:45;3.73;;;3.40;;
5058;SDS011;2548;52.050;11.036;2023-08-17T09:43:13;4.10;;;3.57;;
5058;SDS011;2548;52.050;11.036;2023-08-17T09:45:42;4.53;;;4.13;;
5058;SDS011;2548;52.050;11.036;2023-08-17T09:48:12;4.57;;;3.87;;
5058;SDS011;2548;52.050;11.036;2023-08-17T09:50:41;4.10;;;3.80;;
5058;SDS011;2548;52.050;11.036;2023-08-17T09:53:12;4.40;;;4.07;;
5058;SDS011;2548;52.050;11.036;2023-08-17T09:55:40;5.97;;;4.53;;
5058;SDS011;2548;52.050;11.036;2023-08-17T09:58:09;4.43;;;4.13;;
5058;SDS011;2548;52.050;11.036;2023-08-17T10:00:41;4.30;;;4.00;;
5058;SDS011;2548;52.050;11.036;2023-08-17T10:03:11;5.10;;;4.70;;
5058;SDS011;2548;52.050;11.036;2023-08-17T10:05:42;7.77;;;4.73;;
5058;SDS011;2548;52.050;11.036;2023-08-17T10:08:11;6.00;;;5.63;;
5058;SDS011;2548;52.050;11.036;2023-08-17T10:10:40;5.57;;;5.20;;
5058;SDS011;2548;52.050;11.036;2023-08-17T10:13:12;8.37;;;5.73;;
5058;SDS011;2548;52.050;11.036;2023-08-17T10:15:49;7.00;;;6.17;;
5058;SDS011;2548;52.050;11.036;2023-08-17T10:18:29;5.80;;;5.30;;
5058;SDS011;2548;52.050;11.036;2023-08-17T10:21:03;7.00;;;6.50;;
5058;SDS011;2548;52.050;11.036;2023-08-17T10:23:36;6.20;;;5.70;;
5058;SDS011;2548;52.050;11.036;2023-08-17T10:26:05;6.83;;;6.27;;
5058;SDS011;2548;52.050;11.036;2023-08-17T10:28:35;7.00;;;6.23;;
5058;SDS011;2548;52.050;11.036;2023-08-17T10:31:04;6.97;;;5.93;;
5058;SDS011;2548;52.050;11.036;2023-08-17T10:33:32;6.37;;;5.77;;
5058;SDS011;2548;52.050;11.036;2023-08-17T10:36:00;6.07;;;5.77;;
5058;SDS011;2548;52.050;11.036;2023-08-17T10:38:28;6.90;;;6.27;;
5058;SDS011;2548;52.050;11.036;2023-08-17T10:41:08;12.17;;;8.23;;
5058;SDS011;2548;52.050;11.036;2023-08-17T10:43:57;8.27;;;7.57;;
5058;SDS011;2548;52.050;11.036;2023-08-17T10:46:34;11.67;;;7.97;;
5058;SDS011;2548;52.050;11.036;2023-08-17T10:49:05;10.13;;;8.63;;
5058;SDS011;2548;52.050;11.036;2023-08-17T10:51:33;11.40;;;8.33;;
5058;SDS011;2548;52.050;11.036;2023-08-17T10:54:01;13.10;;;9.43;;
5058;SDS011;2548;52.050;11.036;2023-08-17T10:56:30;11.10;;;8.60;;
5058;SDS011;2548;52.050;11.036;2023-08-17T10:59:02;9.43;;;8.60;;
5058;SDS011;2548;52.050;11.036;2023-08-17T11:01:50;10.20;;;8.87;;
5058;SDS011;2548;52.050;11.036;2023-08-17T11:04:18;10.40;;;9.53;;
5058;SDS011;2548;52.050;11.036;2023-08-17T11:06:52;10.97;;;9.83;;
5058;SDS011;2548;52.050;11.036;2023-08-17T11:09:29;10.87;;;9.77;;
5058;SDS011;2548;52.050;11.036;2023-08-17T11:11:56;11.13;;;10.03;;
5058;SDS011;2548;52.050;11.036;2023-08-17T11:14:33;12.23;;;11.13;;
5058;SDS011;2548;52.050;11.036;2023-08-17T11:17:02;12.10;;;10.80;;
5058;SDS011;2548;52.050;11.036;2023-08-17T11:19:30;13.10;;;10.00;;
5058;SDS011;2548;52.050;11.036;2023-08-17T11:21:57;10.93;;;9.13;;
5058;SDS011;2548;52.050;11.036;2023-08-17T11:24:25;17.43;;;11.07;;
5058;SDS011;2548;52.050;11.036;2023-08-17T11:26:52;10.67;;;9.57;;
5058;SDS011;2548;52.050;11.036;2023-08-17T11:29:21;9.97;;;9.00;;
5058;SDS011;2548;52.050;11.036;2023-08-17T11:31:51;10.83;;;8.27;;
5058;SDS011;2548;52.050;11.036;2023-08-17T11:34:18;12.10;;;9.93;;
5058;SDS011;2548;52.050;11.036;2023-08-17T11:36:46;9.30;;;8.07;;
5058;SDS011;2548;52.050;11.036;2023-08-17T11:39:13;10.90;;;9.90;;
5058;SDS011;2548;52.050;11.036;2023-08-17T11:41:41;11.00;;;8.93;;
5058;SDS011;2548;52.050;11.036;2023-08-17T11:44:09;11.10;;;10.00;;
5058;SDS011;2548;52.050;11.036;2023-08-17T11:46:36;12.70;;;9.90;;
5058;SDS011;2548;52.050;11.036;2023-08-17T11:49:06;11.17;;;9.63;;
5058;SDS011;2548;52.050;11.036;2023-08-17T11:51:33;18.33;;;10.63;;
5058;SDS011;2548;52.050;11.036;2023-08-17T11:54:01;12.10;;;11.00;;
5058;SDS011;2548;52.050;11.036;2023-08-17T11:56:30;18.47;;;11.97;;
5058;SDS011;2548;52.050;11.036;2023-08-17T11:58:58;15.37;;;12.87;;
5058;SDS011;2548;52.050;11.036;2023-08-17T12:01:25;13.80;;;11.47;;
5058;SDS011;2548;52.050;11.036;2023-08-17T12:03:52;16.27;;;14.57;;
5058;SDS011;2548;52.050;11.036;2023-08-17T12:06:21;16.57;;;13.90;;
5058;SDS011;2548;52.050;11.036;2023-08-17T12:08:49;17.83;;;14.63;;
5058;SDS011;2548;52.050;11.036;2023-08-17T12:11:17;17.80;;;15.03;;
5058;SDS011;2548;52.050;11.036;2023-08-17T12:13:48;14.67;;;13.30;;
5058;SDS011;2548;52.050;11.036;2023-08-17T12:16:16;19.70;;;16.13;;
5058;SDS011;2548;52.050;11.036;2023-08-17T12:18:44;17.67;;;15.80;;
5058;SDS011;2548;52.050;11.036;2023-08-17T12:21:12;19.90;;;17.80;;
5058;SDS011;2548;52.050;11.036;2023-08-17T12:23:40;16.67;;;14.83;;
5058;SDS011;2548;52.050;11.036;2023-08-17T12:26:08;24.53;;;17.53;;
5058;SDS011;2548;52.050;11.036;2023-08-17T12:28:36;21.40;;;15.33;;
5058;SDS011;2548;52.050;11.036;2023-08-17T12:31:06;19.53;;;17.50;;
5058;SDS011;2548;52.050;11.036;2023-08-17T12:33:33;19.00;;;16.47;;
5058;SDS011;2548;52.050;11.036;2023-08-17T12:36:01;17.57;;;15.80;;
5058;SDS011;2548;52.050;11.036;2023-08-17T12:38:29;22.43;;;15.77;;
5058;SDS011;2548;52.050;11.036;2023-08-17T12:40:58;19.83;;;14.97;;
5058;SDS011;2548;52.050;11.036;2023-08-17T12:43:26;13.93;;;12.47;;
5058;SDS011;2548;52.050;11.036;2023-08-17T12:45:53;14.63;;;13.07;;
5058;SDS011;2548;52.050;11.036;2023-08-17T12:48:20;16.67;;;11.80;;
5058;SDS011;2548;52.050;11.036;2023-08-17T12:50:48;18.73;;;13.77;;
5058;SDS011;2548;52.050;11.036;2023-08-17T12:53:15;12.50;;;11.17;;
5058;SDS011;2548;52.050;11.036;2023-08-17T12:55:43;17.13;;;11.30;;
5058;SDS011;2548;52.050;11.036;2023-08-17T12:58:12;15.07;;;11.57;;
5058;SDS011;2548;52.050;11.036;2023-08-17T13:00:39;15.67;;;11.47;;
5058;SDS011;2548;52.050;11.036;2023-08-17T13:03:06;11.47;;;10.33;;
5058;SDS011;2548;52.050;11.036;2023-08-17T13:05:34;24.10;;;12.83;;
5058;SDS011;2548;52.050;11.036;2023-08-17T13:08:01;12.37;;;11.10;;
5058;SDS011;2548;52.050;11.036;2023-08-17T13:10:31;12.10;;;10.90;;
5058;SDS011;2548;52.050;11.036;2023-08-17T13:12:59;13.23;;;11.93;;
5058;SDS011;2548;52.050;11.036;2023-08-17T13:15:28;12.10;;;10.70;;
5058;SDS011;2548;52.050;11.036;2023-08-17T13:17:56;14.10;;;9.97;;
5058;SDS011;2548;52.050;11.036;2023-08-17T13:20:23;13.00;;;10.13;;
5058;SDS011;2548;52.050;11.036;2023-08-17T13:22:51;11.27;;;10.10;;
5058;SDS011;2548;52.050;11.036;2023-08-17T13:25:18;9.93;;;9.07;;
5058;SDS011;2548;52.050;11.036;2023-08-17T13:27:46;12.30;;;9.77;;
5058;SDS011;2548;52.050;11.036;2023-08-17T13:30:13;12.13;;;9.40;;
5058;SDS011;2548;52.050;11.036;2023-08-17T13:32:42;12.03;;;10.40;;
5058;SDS011;2548;52.050;11.036;2023-08-17T13:35:09;10.60;;;8.87;;
5058;SDS011;2548;52.050;11.036;2023-08-17T13:37:37;10.90;;;8.50;;
5058;SDS011;2548;52.050;11.036;2023-08-17T13:40:05;8.53;;;7.83;;
5058;SDS011;2548;52.050;11.036;2023-08-17T13:42:33;10.43;;;9.53;;
5058;SDS011;2548;52.050;11.036;2023-08-17T13:45:02;11.03;;;9.90;;
5058;SDS011;2548;52.050;11.036;2023-08-17T13:47:30;8.80;;;8.00;;
5058;SDS011;2548;52.050;11.036;2023-08-17T13:49:58;11.67;;;10.07;;
5058;SDS011;2548;52.050;11.036;2023-08-17T13:52:26;12.77;;;10.07;;
5058;SDS011;2548;52.050;11.036;2023-08-17T13:54:53;11.70;;;9.67;;
5058;SDS011;2548;52.050;11.036;2023-08-17T13:57:21;8.73;;;7.90;;
5058;SDS011;2548;52.050;11.036;2023-08-17T13:59:48;8.40;;;7.60;;
5058;SDS011;2548;52.050;11.036;2023-08-17T14:02:16;10.23;;;9.20;;
5058;SDS011;2548;52.050;11.036;2023-08-17T14:04:43;12.20;;;8.70;;
5058;SDS011;2548;52.050;11.036;2023-08-17T14:07:12;9.63;;;8.83;;
5058;SDS011;2548;52.050;11.036;2023-08-17T14:09:39;17.17;;;9.00;;
5058;SDS011;2548;52.050;11.036;2023-08-17T14:12:07;13.87;;;12.43;;
5058;SDS011;2548;52.050;11.036;2023-08-17T14:14:35;13.87;;;11.03;;
5058;SDS011;2548;52.050;11.036;2023-08-17T14:17:02;12.33;;;11.13;;
5058;SDS011;2548;52.050;11.036;2023-08-17T14:19:30;10.57;;;9.63;;
5058;SDS011;2548;52.050;11.036;2023-08-17T14:21:57;12.00;;;10.50;;
5058;SDS011;2548;52.050;11.036;2023-08-17T14:24:38;14.37;;;13.17;;
5058;SDS011;2548;52.050;11.036;2023-08-17T14:27:06;15.90;;;13.30;;
5058;SDS011;2548;52.050;11.036;2023-08-17T14:29:34;15.77;;;14.20;;
5058;SDS011;2548;52.050;11.036;2023-08-17T14:32:01;15.40;;;14.10;;
5058;SDS011;2548;52.050;11.036;2023-08-17T14:34:29;24.23;;;14.63;;
5058;SDS011;2548;52.050;11.036;2023-08-17T14:37:00;24.47;;;15.60;;
5058;SDS011;2548;52.050;11.036;2023-08-17T14:39:27;16.97;;;15.17;;
5058;SDS011;2548;52.050;11.036;2023-08-17T14:41:56;19.23;;;13.83;;
5058;SDS011;2548;52.050;11.036;2023-08-17T14:44:24;15.07;;;13.50;;
5058;SDS011;2548;52.050;11.036;2023-08-17T14:46:51;14.67;;;13.23;;
5058;SDS011;2548;52.050;11.036;2023-08-17T14:49:19;22.83;;;12.43;;
5058;SDS011;2548;52.050;11.036;2023-08-17T14:51:47;16.23;;;11.77;;
5058;SDS011;2548;52.050;11.036;2023-08-17T14:54:17;11.27;;;10.27;;
5058;SDS011;2548;52.050;11.036;2023-08-17T14:56:45;9.63;;;8.73;;
5058;SDS011;2548;52.050;11.036;2023-08-17T14:59:14;11.83;;;10.73;;
5058;SDS011;2548;52.050;11.036;2023-08-17T15:01:42;12.03;;;11.13;;